sensor_id;sensor_type;location;lat;lon;timestamp;pressure;altitude;pressure_sealevel;temperature;humidity
46534;BME280;32260;52.008;4.752;2023-06-04T00:01:21;102333.63;;;15.52;53.16
46534;BME280;32260;52.008;4.752;2023-06-04T00:03:48;102341.69;;;15.47;53.37
46534;BME280;32260;52.008;4.752;2023-06-04T00:06:14;102344.44;;;15.44;53.87
46534;BME280;32260;52.008;4.752;2023-06-04T00:08:40;102343.59;;;15.41;53.63
46534;BME280;32260;52.008;4.752;2023-06-04T00:11:06;102346.31;;;15.37;53.14
46534;BME280;32260;52.008;4.752;2023-06-04T00:13:32;102350.84;;;15.34;54.44
46534;BME280;32260;52.008;4.752;2023-06-04T00:15:58;102341.06;;;15.31;54.80
46534;BME280;32260;52.008;4.752;2023-06-04T00:18:24;102342.00;;;15.29;54.33
46534;BME280;32260;52.008;4.752;2023-06-04T00:20:51;102349.16;;;15.27;54.99
46534;BME280;32260;52.008;4.752;2023-06-04T00:23:17;102346.53;;;15.24;54.59
46534;BME280;32260;52.008;4.752;2023-06-04T00:25:43;102343.03;;;15.20;54.24
46534;BME280;32260;52.008;4.752;2023-06-04T00:28:10;102346.66;;;15.16;54.68
46534;BME280;32260;52.008;4.752;2023-06-04T00:30:36;102338.72;;;15.11;54.89
46534;BME280;32260;52.008;4.752;2023-06-04T00:33:02;102333.44;;;15.08;54.66
46534;BME280;32260;52.008;4.752;2023-06-04T00:35:28;102340.56;;;15.06;54.60
46534;BME280;32260;52.008;4.752;2023-06-04T00:37:54;102342.38;;;15.04;53.82
46534;BME280;32260;52.008;4.752;2023-06-04T00:40:20;102339.72;;;15.02;54.41
46534;BME280;32260;52.008;4.752;2023-06-04T00:42:46;102344.22;;;14.99;55.01
46534;BME280;32260;52.008;4.752;2023-06-04T00:45:13;102347.84;;;14.95;55.45
46534;BME280;32260;52.008;4.752;2023-06-04T00:47:39;102345.25;;;14.92;54.30
46534;BME280;32260;52.008;4.752;2023-06-04T00:50:07;102339.06;;;14.88;54.16
46534;BME280;32260;52.008;4.752;2023-06-04T00:52:34;102343.56;;;14.84;55.60
46534;BME280;32260;52.008;4.752;2023-06-04T00:55:01;102346.25;;;14.81;55.32
46534;BME280;32260;52.008;4.752;2023-06-04T00:57:28;102351.66;;;14.78;55.00
46534;BME280;32260;52.008;4.752;2023-06-04T00:59:54;102349.91;;;14.76;55.82
46534;BME280;32260;52.008;4.752;2023-06-04T01:02:22;102350.81;;;14.75;54.97
46534;BME280;32260;52.008;4.752;2023-06-04T01:07:33;102349.09;;;14.69;54.99
46534;BME280;32260;52.008;4.752;2023-06-04T01:09:59;102349.13;;;14.66;55.33
46534;BME280;32260;52.008;4.752;2023-06-04T01:12:26;102350.91;;;14.64;55.45
46534;BME280;32260;52.008;4.752;2023-06-04T01:14:52;102347.38;;;14.60;55.99
46534;BME280;32260;52.008;4.752;2023-06-04T01:17:40;102353.56;;;14.64;54.95
46534;BME280;32260;52.008;4.752;2023-06-04T01:20:50;102351.84;;;14.60;54.69
46534;BME280;32260;52.008;4.752;2023-06-04T01:23:28;102354.53;;;14.58;55.42
46534;BME280;32260;52.008;4.752;2023-06-04T01:26:01;102349.31;;;14.49;55.81
46534;BME280;32260;52.008;4.752;2023-06-04T01:28:29;102354.69;;;14.46;55.97
46534;BME280;32260;52.008;4.752;2023-06-04T01:30:56;102361.81;;;14.44;56.17
46534;BME280;32260;52.008;4.752;2023-06-04T01:33:23;102356.50;;;14.42;55.96
46534;BME280;32260;52.008;4.752;2023-06-04T01:35:50;102357.44;;;14.39;56.20
46534;BME280;32260;52.008;4.752;2023-06-04T01:38:16;102352.09;;;14.38;56.03
46534;BME280;32260;52.008;4.752;2023-06-04T01:40:42;102361.94;;;14.34;55.81
46534;BME280;32260;52.008;4.752;2023-06-04T01:43:09;102346.88;;;14.32;55.99
46534;BME280;32260;52.008;4.752;2023-06-04T01:45:36;102350.41;;;14.31;55.53
46534;BME280;32260;52.008;4.752;2023-06-04T01:48:03;102352.22;;;14.29;56.01
46534;BME280;32260;52.008;4.752;2023-06-04T01:50:29;102353.16;;;14.23;56.60
46534;BME280;32260;52.008;4.752;2023-06-04T01:52:57;102352.25;;;14.26;55.51
46534;BME280;32260;52.008;4.752;2023-06-04T01:55:23;102351.38;;;14.23;55.71
46534;BME280;32260;52.008;4.752;2023-06-04T01:57:51;102354.94;;;14.22;55.73
46534;BME280;32260;52.008;4.752;2023-06-04T02:00:17;102350.50;;;14.21;55.75
46534;BME280;32260;52.008;4.752;2023-06-04T02:02:45;102348.72;;;14.20;55.47
46534;BME280;32260;52.008;4.752;2023-06-04T02:05:14;102351.44;;;14.19;55.38
46534;BME280;32260;52.008;4.752;2023-06-04T02:07:42;102352.34;;;14.16;55.63
46534;BME280;32260;52.008;4.752;2023-06-04T02:10:12;102351.47;;;14.14;55.82
46534;BME280;32260;52.008;4.752;2023-06-04T02:12:40;102345.25;;;14.15;55.39
46534;BME280;32260;52.008;4.752;2023-06-04T02:15:10;102354.13;;;14.14;55.29
46534;BME280;32260;52.008;4.752;2023-06-04T02:17:36;102347.97;;;14.11;55.30
46534;BME280;32260;52.008;4.752;2023-06-04T02:20:06;102347.97;;;14.09;55.63
46534;BME280;32260;52.008;4.752;2023-06-04T02:22:35;102346.25;;;14.05;56.13
46534;BME280;32260;52.008;4.752;2023-06-04T02:25:02;102340.03;;;14.03;56.10
46534;BME280;32260;52.008;4.752;2023-06-04T02:27:28;102348.06;;;14.01;56.25
46534;BME280;32260;52.008;4.752;2023-06-04T02:29:54;102343.66;;;13.99;55.92
46534;BME280;32260;52.008;4.752;2023-06-04T02:32:20;102343.69;;;13.96;55.70
46534;BME280;32260;52.008;4.752;2023-06-04T02:34:46;102339.25;;;13.93;56.21
46534;BME280;32260;52.008;4.752;2023-06-04T02:37:12;102344.66;;;13.88;56.30
46534;BME280;32260;52.008;4.752;2023-06-04T02:39:39;102348.19;;;13.89;56.26
46534;BME280;32260;52.008;4.752;2023-06-04T02:42:05;102354.41;;;13.88;55.92
46534;BME280;32260;52.008;4.752;2023-06-04T02:44:31;102353.53;;;13.87;55.93
46534;BME280;32260;52.008;4.752;2023-06-04T02:46:58;102353.53;;;13.84;55.92
46534;BME280;32260;52.008;4.752;2023-06-04T02:49:24;102354.47;;;13.83;56.95
46534;BME280;32260;52.008;4.752;2023-06-04T02:51:51;102356.25;;;13.81;56.63
46534;BME280;32260;52.008;4.752;2023-06-04T02:54:17;102353.59;;;13.78;56.69
46534;BME280;32260;52.008;4.752;2023-06-04T02:56:43;102350.06;;;13.78;55.93
46534;BME280;32260;52.008;4.752;2023-06-04T02:59:10;102348.31;;;13.75;56.81
46534;BME280;32260;52.008;4.752;2023-06-04T03:01:36;102348.31;;;13.72;56.66
46534;BME280;32260;52.008;4.752;2023-06-04T03:04:02;102350.16;;;13.67;56.85
46534;BME280;32260;52.008;4.752;2023-06-04T03:06:31;102349.28;;;13.66;56.52
46534;BME280;32260;52.008;4.752;2023-06-04T03:08:59;102345.75;;;13.63;55.84
46534;BME280;32260;52.008;4.752;2023-06-04T03:11:26;102349.31;;;13.62;56.92
46534;BME280;32260;52.008;4.752;2023-06-04T03:13:53;102349.31;;;13.62;56.37
46534;BME280;32260;52.008;4.752;2023-06-04T03:16:19;102344.03;;;13.58;56.63
46534;BME280;32260;52.008;4.752;2023-06-04T03:18:46;102348.47;;;13.56;57.01
46534;BME280;32260;52.008;4.752;2023-06-04T03:21:12;102346.72;;;13.54;56.86
46534;BME280;32260;52.008;4.752;2023-06-04T03:23:39;102348.53;;;13.53;56.91
46534;BME280;32260;52.008;4.752;2023-06-04T03:26:06;102346.75;;;13.52;56.52
46534;BME280;32260;52.008;4.752;2023-06-04T03:28:33;102345.00;;;13.50;56.75
46534;BME280;32260;52.008;4.752;2023-06-04T03:30:59;102354.75;;;13.49;57.02
46534;BME280;32260;52.008;4.752;2023-06-04T03:33:25;102345.91;;;13.47;56.44
46534;BME280;32260;52.008;4.752;2023-06-04T03:35:52;102355.66;;;13.45;56.80
46534;BME280;32260;52.008;4.752;2023-06-04T03:38:19;102351.22;;;13.44;56.56
46534;BME280;32260;52.008;4.752;2023-06-04T03:40:46;102352.13;;;13.45;56.83
46534;BME280;32260;52.008;4.752;2023-06-04T03:43:12;102353.00;;;13.45;56.54
46534;BME280;32260;52.008;4.752;2023-06-04T03:45:38;102352.13;;;13.45;56.84
46534;BME280;32260;52.008;4.752;2023-06-04T03:48:07;102349.47;;;13.43;57.43
46534;BME280;32260;52.008;4.752;2023-06-04T03:50:33;102354.81;;;13.41;56.67
46534;BME280;32260;52.008;4.752;2023-06-04T03:53:01;102353.94;;;13.39;57.49
46534;BME280;32260;52.008;4.752;2023-06-04T03:55:27;102361.94;;;13.41;56.77
46534;BME280;32260;52.008;4.752;2023-06-04T03:57:53;102348.63;;;13.41;56.90
46534;BME280;32260;52.008;4.752;2023-06-04T04:00:19;102355.69;;;13.43;56.08
46534;BME280;32260;52.008;4.752;2023-06-04T04:02:46;102362.78;;;13.45;56.84
46534;BME280;32260;52.008;4.752;2023-06-04T04:05:12;102360.09;;;13.46;56.27
46534;BME280;32260;52.008;4.752;2023-06-04T04:07:38;102358.34;;;13.45;56.57
46534;BME280;32260;52.008;4.752;2023-06-04T04:10:04;102360.09;;;13.46;56.01
46534;BME280;32260;52.008;4.752;2023-06-04T04:12:31;102362.78;;;13.46;56.56
46534;BME280;32260;52.008;4.752;2023-06-04T04:14:57;102356.56;;;13.44;56.71
46534;BME280;32260;52.008;4.752;2023-06-04T04:17:25;102360.97;;;13.47;57.19
46534;BME280;32260;52.008;4.752;2023-06-04T04:19:51;102355.63;;;13.48;57.22
46534;BME280;32260;52.008;4.752;2023-06-04T04:22:17;102356.56;;;13.44;57.16
46534;BME280;32260;52.008;4.752;2023-06-04T04:24:44;102360.94;;;13.51;57.15
46534;BME280;32260;52.008;4.752;2023-06-04T04:27:10;102358.25;;;13.53;57.03
46534;BME280;32260;52.008;4.752;2023-06-04T04:29:38;102357.38;;;13.54;57.27
46534;BME280;32260;52.008;4.752;2023-06-04T04:32:05;102354.69;;;13.55;57.15
46534;BME280;32260;52.008;4.752;2023-06-04T04:34:37;102352.91;;;13.57;57.12
46534;BME280;32260;52.008;4.752;2023-06-04T04:37:05;102351.97;;;13.62;57.42
46534;BME280;32260;52.008;4.752;2023-06-04T04:39:34;102359.09;;;13.61;57.42
46534;BME280;32260;52.008;4.752;2023-06-04T04:42:01;102355.53;;;13.64;56.93
46534;BME280;32260;52.008;4.752;2023-06-04T04:44:28;102357.28;;;13.66;57.12
46534;BME280;32260;52.008;4.752;2023-06-04T04:46:54;102355.50;;;13.68;57.27
46534;BME280;32260;52.008;4.752;2023-06-04T04:49:20;102358.97;;;13.72;56.98
46534;BME280;32260;52.008;4.752;2023-06-04T04:51:47;102350.13;;;13.74;57.18
46534;BME280;32260;52.008;4.752;2023-06-04T04:54:13;102356.28;;;13.77;57.45
46534;BME280;32260;52.008;4.752;2023-06-04T04:56:39;102356.25;;;13.81;56.53
46534;BME280;32260;52.008;4.752;2023-06-04T04:59:06;102345.53;;;13.87;56.21
46534;BME280;32260;52.008;4.752;2023-06-04T05:01:32;102347.31;;;13.88;57.54
46534;BME280;32260;52.008;4.752;2023-06-04T05:03:58;102345.50;;;13.92;57.11
46534;BME280;32260;52.008;4.752;2023-06-04T05:06:24;102352.56;;;13.96;56.74
46534;BME280;32260;52.008;4.752;2023-06-04T05:08:50;102362.28;;;14.00;57.06
46534;BME280;32260;52.008;4.752;2023-06-04T05:11:16;102356.00;;;14.06;57.09
46534;BME280;32260;52.008;4.752;2023-06-04T05:13:42;102359.50;;;14.11;56.34
46534;BME280;32260;52.008;4.752;2023-06-04T05:16:08;102361.28;;;14.12;56.74
46534;BME280;32260;52.008;4.752;2023-06-04T05:18:37;102363.00;;;14.16;56.66
46534;BME280;32260;52.008;4.752;2023-06-04T05:21:07;102354.06;;;14.20;56.22
46534;BME280;32260;52.008;4.752;2023-06-04T05:23:33;102357.59;;;14.24;56.67
46534;BME280;32260;52.008;4.752;2023-06-04T05:26:01;102375.31;;;14.27;57.46
46534;BME280;32260;52.008;4.752;2023-06-04T05:28:27;102364.63;;;14.31;57.20
46534;BME280;32260;52.008;4.752;2023-06-04T05:30:53;102365.44;;;14.36;56.72
46534;BME280;32260;52.008;4.752;2023-06-04T05:33:26;102369.84;;;14.42;55.95
46534;BME280;32260;52.008;4.752;2023-06-04T05:35:52;102366.22;;;14.46;56.09
46534;BME280;32260;52.008;4.752;2023-06-04T05:38:20;102365.28;;;14.52;55.82
46534;BME280;32260;52.008;4.752;2023-06-04T05:40:46;102370.53;;;14.56;56.52
46534;BME280;32260;52.008;4.752;2023-06-04T05:43:13;102366.94;;;14.59;56.45
46534;BME280;32260;52.008;4.752;2023-06-04T05:45:39;102364.25;;;14.67;55.71
46534;BME280;32260;52.008;4.752;2023-06-04T05:48:05;102364.16;;;14.73;56.09
46534;BME280;32260;52.008;4.752;2023-06-04T05:50:32;102364.13;;;14.76;55.59
46534;BME280;32260;52.008;4.752;2023-06-04T05:52:58;102366.69;;;14.85;55.48
46534;BME280;32260;52.008;4.752;2023-06-04T05:55:24;102371.94;;;14.92;55.21
46534;BME280;32260;52.008;4.752;2023-06-04T05:57:50;102368.28;;;14.97;55.33
46534;BME280;32260;52.008;4.752;2023-06-04T06:00:18;102369.97;;;15.04;55.65
46534;BME280;32260;52.008;4.752;2023-06-04T06:02:44;102370.75;;;15.11;54.94
46534;BME280;32260;52.008;4.752;2023-06-04T06:05:11;102368.00;;;15.16;54.77
46534;BME280;32260;52.008;4.752;2023-06-04T06:07:37;102365.31;;;15.17;54.53
46534;BME280;32260;52.008;4.752;2023-06-04T06:10:04;102371.38;;;15.29;54.81
46534;BME280;32260;52.008;4.752;2023-06-04T06:12:31;102376.63;;;15.35;54.69
46534;BME280;32260;52.008;4.752;2023-06-04T06:14:57;102372.94;;;15.42;54.87
46534;BME280;32260;52.008;4.752;2023-06-04T06:17:23;102375.53;;;15.48;54.31
46534;BME280;32260;52.008;4.752;2023-06-04T06:19:50;102374.53;;;15.56;53.99
46534;BME280;32260;52.008;4.752;2023-06-04T06:22:16;102371.78;;;15.60;54.12
46534;BME280;32260;52.008;4.752;2023-06-04T06:24:42;102375.28;;;15.64;53.84
46534;BME280;32260;52.008;4.752;2023-06-04T06:27:09;102371.59;;;15.71;53.89
46534;BME280;32260;52.008;4.752;2023-06-04T06:29:36;102372.38;;;15.76;53.69
46534;BME280;32260;52.008;4.752;2023-06-04T06:32:03;102375.88;;;15.83;53.86
46534;BME280;32260;52.008;4.752;2023-06-04T06:34:29;102380.22;;;15.89;54.10
46534;BME280;32260;52.008;4.752;2023-06-04T06:36:56;102380.09;;;15.95;53.38
46534;BME280;32260;52.008;4.752;2023-06-04T06:39:25;102383.53;;;16.03;53.54
46534;BME280;32260;52.008;4.752;2023-06-04T06:41:51;102387.00;;;16.08;53.55
46534;BME280;32260;52.008;4.752;2023-06-04T06:44:17;102385.09;;;16.16;52.84
46534;BME280;32260;52.008;4.752;2023-06-04T06:46:43;102383.19;;;16.22;53.14
46534;BME280;32260;52.008;4.752;2023-06-04T06:49:10;102385.69;;;16.31;52.90
46534;BME280;32260;52.008;4.752;2023-06-04T06:51:36;102384.63;;;16.41;52.88
46534;BME280;32260;52.008;4.752;2023-06-04T06:54:02;102385.34;;;16.48;52.32
46534;BME280;32260;52.008;4.752;2023-06-04T06:56:28;102387.03;;;16.54;51.52
46534;BME280;32260;52.008;4.752;2023-06-04T06:58:56;102388.56;;;16.65;52.00
46534;BME280;32260;52.008;4.752;2023-06-04T07:01:22;102391.03;;;16.76;51.58
46534;BME280;32260;52.008;4.752;2023-06-04T07:03:48;102382.81;;;16.84;51.36
46534;BME280;32260;52.008;4.752;2023-06-04T07:06:15;102384.66;;;16.82;49.98
46534;BME280;32260;52.008;4.752;2023-06-04T07:08:41;102392.34;;;16.99;50.75
46534;BME280;32260;52.008;4.752;2023-06-04T07:11:08;102380.53;;;17.08;50.32
46534;BME280;32260;52.008;4.752;2023-06-04T07:13:38;102388.41;;;17.16;50.08
46534;BME280;32260;52.008;4.752;2023-06-04T07:16:04;102385.56;;;17.22;49.70
46534;BME280;32260;52.008;4.752;2023-06-04T07:18:30;102384.56;;;17.27;48.95
46534;BME280;32260;52.008;4.752;2023-06-04T07:20:57;102394.16;;;17.38;49.30
46534;BME280;32260;52.008;4.752;2023-06-04T07:23:23;102394.72;;;17.51;49.64
46534;BME280;32260;52.008;4.752;2023-06-04T07:25:49;102385.56;;;17.59;48.82
46534;BME280;32260;52.008;4.752;2023-06-04T07:28:16;102388.88;;;17.71;48.65
46534;BME280;32260;52.008;4.752;2023-06-04T07:30:44;102390.44;;;17.79;48.51
46534;BME280;32260;52.008;4.752;2023-06-04T07:33:10;102390.13;;;17.92;48.87
46534;BME280;32260;52.008;4.752;2023-06-04T07:35:36;102395.28;;;18.01;48.18
46534;BME280;32260;52.008;4.752;2023-06-04T07:38:02;102397.69;;;18.10;48.17
46534;BME280;32260;52.008;4.752;2023-06-04T07:40:29;102385.84;;;18.19;47.10
46534;BME280;32260;52.008;4.752;2023-06-04T07:42:55;102393.66;;;18.29;47.74
46534;BME280;32260;52.008;4.752;2023-06-04T07:45:21;102383.53;;;18.38;47.56
46534;BME280;32260;52.008;4.752;2023-06-04T07:47:47;102382.44;;;18.46;46.43
46534;BME280;32260;52.008;4.752;2023-06-04T07:50:14;102375.97;;;18.53;47.13
46534;BME280;32260;52.008;4.752;2023-06-04T07:52:40;102375.69;;;18.62;47.24
46534;BME280;32260;52.008;4.752;2023-06-04T07:55:07;102383.53;;;18.70;46.30
46534;BME280;32260;52.008;4.752;2023-06-04T07:57:34;102378.84;;;18.76;46.51
46534;BME280;32260;52.008;4.752;2023-06-04T08:00:00;102383.03;;;18.87;45.70
46534;BME280;32260;52.008;4.752;2023-06-04T08:02:30;102381.16;;;18.90;44.06
46534;BME280;32260;52.008;4.752;2023-06-04T08:04:56;102378.03;;;19.04;45.32
46534;BME280;32260;52.008;4.752;2023-06-04T08:07:22;102381.34;;;19.13;44.86
46534;BME280;32260;52.008;4.752;2023-06-04T08:09:48;102386.31;;;19.27;45.48
46534;BME280;32260;52.008;4.752;2023-06-04T08:12:16;102387.72;;;19.38;45.01
46534;BME280;32260;52.008;4.752;2023-06-04T08:14:42;102382.00;;;19.49;44.35
46534;BME280;32260;52.008;4.752;2023-06-04T08:17:08;102389.78;;;19.57;44.28
46534;BME280;32260;52.008;4.752;2023-06-04T08:19:34;102386.91;;;19.63;44.00
46534;BME280;32260;52.008;4.752;2023-06-04T08:22:00;102379.56;;;19.68;44.20
46534;BME280;32260;52.008;4.752;2023-06-04T08:24:27;102395.38;;;19.78;43.25
46534;BME280;32260;52.008;4.752;2023-06-04T08:26:53;102387.03;;;19.87;42.83
46534;BME280;32260;52.008;4.752;2023-06-04T08:29:19;102376.97;;;19.92;43.33
46534;BME280;32260;52.008;4.752;2023-06-04T08:31:45;102385.88;;;19.94;40.96
46534;BME280;32260;52.008;4.752;2023-06-04T08:34:12;102388.16;;;20.07;42.23
46534;BME280;32260;52.008;4.752;2023-06-04T08:36:38;102392.31;;;20.15;42.96
46534;BME280;32260;52.008;4.752;2023-06-04T08:39:05;102388.28;;;20.27;42.39
46534;BME280;32260;52.008;4.752;2023-06-04T08:41:49;102383.34;;;20.40;42.50
46534;BME280;32260;52.008;4.752;2023-06-04T08:44:17;102386.84;;;20.42;41.68
46534;BME280;32260;52.008;4.752;2023-06-04T08:46:44;102401.63;;;20.56;42.35
46534;BME280;32260;52.008;4.752;2023-06-04T08:49:12;102389.56;;;20.66;42.01
46534;BME280;32260;52.008;4.752;2023-06-04T08:51:39;102399.97;;;20.77;42.52
46534;BME280;32260;52.008;4.752;2023-06-04T08:54:07;102393.41;;;20.84;42.06
46534;BME280;32260;52.008;4.752;2023-06-04T08:56:34;102396.94;;;20.86;41.85
46534;BME280;32260;52.008;4.752;2023-06-04T08:59:03;102389.41;;;20.94;41.90
46534;BME280;32260;52.008;4.752;2023-06-04T09:01:31;102392.69;;;21.03;41.90
46534;BME280;32260;52.008;4.752;2023-06-04T09:04:03;102385.81;;;21.17;42.28
46534;BME280;32260;52.008;4.752;2023-06-04T09:06:33;102392.41;;;21.32;41.85
46534;BME280;32260;52.008;4.752;2023-06-04T09:09:03;102384.81;;;21.42;41.95
46534;BME280;32260;52.008;4.752;2023-06-04T09:11:35;102389.66;;;21.56;42.06
46534;BME280;32260;52.008;4.752;2023-06-04T09:14:07;102392.16;;;21.61;40.83
46534;BME280;32260;52.008;4.752;2023-06-04T09:19:20;102389.59;;;21.58;40.26
46534;BME280;32260;52.008;4.752;2023-06-04T09:24:38;102393.34;;;21.76;41.92
46534;BME280;32260;52.008;4.752;2023-06-04T09:27:14;102396.38;;;21.89;41.94
46534;BME280;32260;52.008;4.752;2023-06-04T09:29:48;102387.16;;;21.94;42.13
46534;BME280;32260;52.008;4.752;2023-06-04T09:32:22;102391.03;;;22.08;42.53
46534;BME280;32260;52.008;4.752;2023-06-04T09:34:49;102394.22;;;22.18;41.67
46534;BME280;32260;52.008;4.752;2023-06-04T09:37:16;102401.19;;;22.23;41.20
46534;BME280;32260;52.008;4.752;2023-06-04T09:39:59;102394.50;;;22.32;42.32
46534;BME280;32260;52.008;4.752;2023-06-04T09:42:40;102405.91;;;22.39;41.28
46534;BME280;32260;52.008;4.752;2023-06-04T09:45:07;102401.78;;;22.51;41.04
46534;BME280;32260;52.008;4.752;2023-06-04T09:47:42;102397.44;;;22.67;40.81
46534;BME280;32260;52.008;4.752;2023-06-04T09:50:10;102392.59;;;22.74;40.56
46534;BME280;32260;52.008;4.752;2023-06-04T09:52:36;102398.53;;;22.82;41.29
46534;BME280;32260;52.008;4.752;2023-06-04T09:55:03;102393.66;;;22.90;41.57
46534;BME280;32260;52.008;4.752;2023-06-04T09:57:30;102395.97;;;22.98;41.27
46534;BME280;32260;52.008;4.752;2023-06-04T09:59:58;102393.75;;;23.06;41.41
46534;BME280;32260;52.008;4.752;2023-06-04T10:02:26;102397.84;;;23.15;41.42
46534;BME280;32260;52.008;4.752;2023-06-04T10:04:56;102396.50;;;23.25;39.57
46534;BME280;32260;52.008;4.752;2023-06-04T10:07:24;102393.31;;;23.35;40.75
46534;BME280;32260;52.008;4.752;2023-06-04T10:09:52;102402.38;;;23.34;39.90
46534;BME280;32260;52.008;4.752;2023-06-04T10:12:25;102393.97;;;23.40;40.30
46534;BME280;32260;52.008;4.752;2023-06-04T10:14:59;102392.22;;;23.39;39.69
46534;BME280;32260;52.008;4.752;2023-06-04T10:17:27;102389.38;;;23.42;38.76
46534;BME280;32260;52.008;4.752;2023-06-04T10:19:54;102396.38;;;23.46;39.82
46534;BME280;32260;52.008;4.752;2023-06-04T10:22:22;102390.75;;;23.51;38.98
46534;BME280;32260;52.008;4.752;2023-06-04T10:24:49;102391.25;;;23.59;39.63
46534;BME280;32260;52.008;4.752;2023-06-04T10:27:17;102386.53;;;23.63;40.12
46534;BME280;32260;52.008;4.752;2023-06-04T10:29:44;102396.16;;;23.68;38.97
46534;BME280;32260;52.008;4.752;2023-06-04T10:32:12;102380.47;;;23.75;38.82
46534;BME280;32260;52.008;4.752;2023-06-04T10:34:38;102384.53;;;23.84;39.15
46534;BME280;32260;52.008;4.752;2023-06-04T10:37:05;102389.91;;;23.85;38.92
46534;BME280;32260;52.008;4.752;2023-06-04T10:39:33;102390.84;;;23.84;38.74
46534;BME280;32260;52.008;4.752;2023-06-04T10:42:00;102392.31;;;23.92;39.05
46534;BME280;32260;52.008;4.752;2023-06-04T10:44:27;102388.69;;;23.91;39.07
46534;BME280;32260;52.008;4.752;2023-06-04T10:46:53;102396.69;;;23.94;39.70
46534;BME280;32260;52.008;4.752;2023-06-04T10:49:27;102386.41;;;24.01;38.90
46534;BME280;32260;52.008;4.752;2023-06-04T10:51:54;102385.03;;;24.10;38.66
46534;BME280;32260;52.008;4.752;2023-06-04T10:54:29;102386.81;;;24.11;38.25
46534;BME280;32260;52.008;4.752;2023-06-04T10:56:55;102389.50;;;24.11;38.91
46534;BME280;32260;52.008;4.752;2023-06-04T10:59:22;102385.53;;;24.18;39.15
46534;BME280;32260;52.008;4.752;2023-06-04T11:01:50;102387.81;;;24.26;37.53
46534;BME280;32260;52.008;4.752;2023-06-04T11:04:24;102389.88;;;24.38;38.44
46534;BME280;32260;52.008;4.752;2023-06-04T11:07:11;102390.59;;;24.42;37.81
46534;BME280;32260;52.008;4.752;2023-06-04T11:09:47;102388.28;;;24.34;36.61
46534;BME280;32260;52.008;4.752;2023-06-04T11:12:14;102386.81;;;24.44;37.66
46534;BME280;32260;52.008;4.752;2023-06-04T11:14:40;102390.59;;;24.42;39.04
46534;BME280;32260;52.008;4.752;2023-06-04T11:17:14;102390.44;;;24.61;37.27
46534;BME280;32260;52.008;4.752;2023-06-04T11:19:40;102394.34;;;24.73;38.26
46534;BME280;32260;52.008;4.752;2023-06-04T11:22:11;102387.69;;;24.78;37.09
46534;BME280;32260;52.008;4.752;2023-06-04T11:24:38;102383.78;;;24.84;37.49
46534;BME280;32260;52.008;4.752;2023-06-04T11:27:05;102380.81;;;24.89;36.13
46534;BME280;32260;52.008;4.752;2023-06-04T11:29:31;102386.16;;;24.90;36.02
46534;BME280;32260;52.008;4.752;2023-06-04T11:31:58;102378.25;;;24.85;35.86
46534;BME280;32260;52.008;4.752;2023-06-04T11:34:26;102371.63;;;24.91;36.99
46534;BME280;32260;52.008;4.752;2023-06-04T11:36:53;102372.50;;;25.08;36.46
46534;BME280;32260;52.008;4.752;2023-06-04T11:39:20;102369.78;;;25.08;36.35
46534;BME280;32260;52.008;4.752;2023-06-04T11:41:50;102362.00;;;25.17;35.14
46534;BME280;32260;52.008;4.752;2023-06-04T11:44:19;102357.09;;;25.24;35.27
46534;BME280;32260;52.008;4.752;2023-06-04T11:46:46;102360.94;;;25.36;36.25
46534;BME280;32260;52.008;4.752;2023-06-04T11:49:16;102358.63;;;25.28;36.33
46534;BME280;32260;52.008;4.752;2023-06-04T11:51:52;102355.19;;;25.42;36.52
46534;BME280;32260;52.008;4.752;2023-06-04T11:54:21;102352.00;;;25.34;34.67
46534;BME280;32260;52.008;4.752;2023-06-04T11:56:50;102344.13;;;25.45;35.05
46534;BME280;32260;52.008;4.752;2023-06-04T11:59:17;102341.84;;;25.54;35.61
46534;BME280;32260;52.008;4.752;2023-06-04T12:01:45;102349.50;;;25.61;35.64
46534;BME280;32260;52.008;4.752;2023-06-04T12:04:13;102350.00;;;25.68;33.94
46534;BME280;32260;52.008;4.752;2023-06-04T12:06:50;102348.78;;;25.74;35.54
46534;BME280;32260;52.008;4.752;2023-06-04T12:09:21;102354.69;;;25.80;33.47
46534;BME280;32260;52.008;4.752;2023-06-04T12:11:48;102350.44;;;25.76;33.15
46534;BME280;32260;52.008;4.752;2023-06-04T12:14:18;102346.44;;;25.82;33.01
46534;BME280;32260;52.008;4.752;2023-06-04T12:19:33;102349.31;;;25.95;32.58
46534;BME280;32260;52.008;4.752;2023-06-04T12:22:03;102345.47;;;26.13;32.87
46534;BME280;32260;52.008;4.752;2023-06-04T12:24:30;102341.22;;;26.24;33.85
46534;BME280;32260;52.008;4.752;2023-06-04T12:27:12;102340.72;;;26.31;34.19
46534;BME280;32260;52.008;4.752;2023-06-04T12:29:38;102352.53;;;26.30;33.33
46534;BME280;32260;52.008;4.752;2023-06-04T12:32:09;102347.50;;;26.39;32.20
46534;BME280;32260;52.008;4.752;2023-06-04T12:34:40;102342.75;;;26.28;33.07
46534;BME280;32260;52.008;4.752;2023-06-04T12:37:07;102351.09;;;26.39;33.43
46534;BME280;32260;52.008;4.752;2023-06-04T12:39:34;102350.22;;;26.39;34.15
46534;BME280;32260;52.008;4.752;2023-06-04T12:42:04;102348.00;;;26.31;32.50
46534;BME280;32260;52.008;4.752;2023-06-04T12:44:31;102346.72;;;26.37;34.41
46534;BME280;32260;52.008;4.752;2023-06-04T12:46:57;102342.47;;;26.47;33.31
46534;BME280;32260;52.008;4.752;2023-06-04T12:49:23;102342.94;;;26.68;34.37
46534;BME280;32260;52.008;4.752;2023-06-04T12:51:50;102341.84;;;26.85;33.75
46534;BME280;32260;52.008;4.752;2023-06-04T12:54:17;102342.72;;;26.86;33.17
46534;BME280;32260;52.008;4.752;2023-06-04T12:56:44;102346.47;;;26.98;32.58
46534;BME280;32260;52.008;4.752;2023-06-04T12:59:10;102341.44;;;26.91;31.80
46534;BME280;32260;52.008;4.752;2023-06-04T13:01:36;102342.50;;;26.89;31.70
46534;BME280;32260;52.008;4.752;2023-06-04T13:04:03;102339.25;;;26.55;31.34